Time;durP1;ratioP1;P1;durP2;ratioP2;P2;SDS_P1;SDS_P2;PMS_P1;PMS_P2;Temp;Humidity;BMP_temperature;BMP_pressure;BME280_temperature;BME280_humidity;BME280_pressure;Samples;Min_cycle;Max_cycle;Signal;HPM_P1;HPM_P2
2022/03/27 06:07:19;;;;;;;51.00;34.03;;;11.90;56.00;;;;;;6012476;23;20056;-96
2022/03/27 06:09:51;;;;;;;47.90;34.88;;;12.00;54.60;;;;;;4981623;28;20050;-96
2022/03/27 06:12:21;;;;;;;51.42;35.60;;;12.10;55.50;;;;;;4969944;28;20043;-95
2022/03/27 06:14:48;;;;;;;46.05;33.20;;;12.10;54.40;;;;;;4965563;28;20059;-96
2022/03/27 06:17:14;;;;;;;45.15;34.05;;;12.20;54.70;;;;;;4964179;28;20484;-96
2022/03/27 06:19:39;;;;;;;46.50;33.47;;;12.20;54.80;;;;;;4983551;28;20664;-96
2022/03/27 06:22:06;;;;;;;49.63;33.30;;;12.30;53.80;;;;;;4962458;28;20027;-96
2022/03/27 06:24:33;;;;;;;44.03;32.05;;;12.30;52.90;;;;;;4963166;28;20045;-96
2022/03/27 06:27:00;;;;;;;44.83;32.78;;;12.40;53.00;;;;;;4979469;28;20486;-96
2022/03/27 06:29:30;;;;;;;45.20;32.72;;;12.40;54.10;;;;;;4977350;28;20111;-96
2022/03/27 06:32:47;;;;;;;47.55;33.45;;;12.40;53.50;;;;;;4961395;28;20031;-96
2022/03/27 06:35:38;;;;;;;50.80;33.10;;;12.50;53.60;;;;;;4962813;28;20074;-96
2022/03/27 06:44:43;;;;;;;44.10;31.38;;;12.70;54.70;;;;;;5012578;23;20125;-90
2022/03/27 06:47:09;;;;;;;35.85;28.35;;;12.70;53.40;;;;;;4977182;28;20114;-91
2022/03/27 06:49:35;;;;;;;39.53;28.45;;;12.70;52.30;;;;;;4941223;29;20436;-90
2022/03/27 06:52:01;;;;;;;37.10;28.27;;;12.80;52.20;;;;;;4940566;29;20035;-91
2022/03/27 06:54:29;;;;;;;36.25;27.75;;;13.00;51.90;;;;;;4958047;29;20420;-92
2022/03/27 06:57:00;;;;;;;38.13;28.13;;;13.00;52.10;;;;;;4972306;28;20086;-93
2022/03/27 07:05:09;;;;;;;42.55;32.97;;;13.20;50.70;;;;;;4977471;28;20089;-93
2022/03/27 07:07:36;;;;;;;43.70;29.67;;;13.20;50.30;;;;;;4977753;28;20030;-93
2022/03/27 07:10:06;;;;;;;42.55;29.25;;;13.30;50.80;;;;;;4977566;28;20030;-93
2022/03/27 07:12:31;;;;;;;45.97;29.85;;;13.40;49.90;;;;;;4957799;29;20046;-93
2022/03/27 07:14:57;;;;;;;41.08;29.52;;;13.40;50.60;;;;;;4972035;28;20031;-86
2022/03/27 07:17:23;;;;;;;37.42;27.70;;;13.40;50.20;;;;;;4976731;28;20074;-89
2022/03/27 07:19:49;;;;;;;40.70;30.80;;;13.60;52.50;;;;;;4960856;28;20054;-89
2022/03/27 07:22:15;;;;;;;39.97;30.95;;;13.60;50.80;;;;;;4959124;28;20042;-89
2022/03/27 07:24:41;;;;;;;37.10;29.30;;;13.70;50.70;;;;;;4976529;28;20491;-89
2022/03/27 07:27:08;;;;;;;41.17;30.50;;;13.70;50.70;;;;;;4959446;28;20078;-90
2022/03/27 07:29:35;;;;;;;40.78;30.30;;;13.90;51.50;;;;;;4976759;28;20043;-90
2022/03/27 07:32:01;;;;;;;48.10;28.58;;;14.00;51.50;;;;;;4974071;28;20063;-89
2022/03/27 07:34:27;;;;;;;40.92;30.48;;;14.20;56.00;;;;;;4968640;28;20547;-86
2022/03/27 07:36:53;;;;;;;42.75;32.45;;;14.30;50.90;;;;;;4975683;28;20051;-85
2022/03/27 07:39:19;;;;;;;39.78;30.05;;;14.30;51.30;;;;;;4976175;28;20035;-86
2022/03/27 07:41:45;;;;;;;41.60;30.55;;;14.30;49.70;;;;;;4975692;28;20039;-86
2022/03/27 07:44:10;;;;;;;35.83;28.55;;;14.40;49.80;;;;;;4977655;28;20096;-84
2022/03/27 07:46:36;;;;;;;35.97;28.23;;;14.50;50.20;;;;;;4963317;28;20043;-88
2022/03/27 07:49:02;;;;;;;32.58;22.83;;;14.60;50.90;;;;;;4977383;28;20050;-84
2022/03/27 07:51:27;;;;;;;28.83;19.88;;;14.70;55.50;;;;;;4975643;28;20043;-84
2022/03/27 07:53:53;;;;;;;38.15;27.80;;;14.90;58.50;;;;;;4974923;28;20038;-84
2022/03/27 07:56:19;;;;;;;28.85;22.90;;;15.10;52.50;;;;;;4975249;28;20486;-82
2022/03/27 07:58:46;;;;;;;32.50;24.45;;;15.30;52.60;;;;;;4969244;28;20042;-82
2022/03/27 08:01:14;;;;;;;32.30;23.85;;;15.40;51.60;;;;;;4970281;28;20043;-82
2022/03/27 08:03:41;;;;;;;30.10;24.05;;;15.50;50.70;;;;;;4956197;28;20458;-82
2022/03/27 08:06:07;;;;;;;37.33;25.60;;;15.60;47.70;;;;;;4973772;28;20049;-82
2022/03/27 08:08:33;;;;;;;28.73;23.13;;;15.70;46.80;;;;;;4972658;28;20093;-81
2022/03/27 08:11:00;;;;;;;34.83;23.90;;;15.80;46.50;;;;;;4974593;28;20034;-82
2022/03/27 08:13:26;;;;;;;31.23;21.77;;;15.80;45.70;;;;;;4957945;28;20045;-82
2022/03/27 08:15:52;;;;;;;30.55;23.60;;;15.90;45.90;;;;;;4975522;28;20035;-81
2022/03/27 08:18:18;;;;;;;32.08;22.45;;;16.00;46.00;;;;;;4975429;28;20030;-81
2022/03/27 08:20:44;;;;;;;27.25;21.40;;;16.10;46.30;;;;;;4975087;28;20506;-84
2022/03/27 08:23:10;;;;;;;31.98;22.23;;;16.20;46.20;;;;;;4974646;28;20464;-82
2022/03/27 08:28:21;;;;;;;27.95;20.88;;;16.40;44.10;;;;;;4959285;28;20054;-84
2022/03/27 08:30:48;;;;;;;37.10;23.45;;;16.50;44.30;;;;;;4956718;29;20043;-84
2022/03/27 08:33:15;;;;;;;28.13;21.55;;;16.60;43.50;;;;;;4961043;28;20043;-84
2022/03/27 08:35:42;;;;;;;26.30;21.05;;;16.70;42.90;;;;;;4979001;28;20038;-84
2022/03/27 08:38:17;;;;;;;29.90;22.80;;;16.80;43.20;;;;;;4979709;28;20035;-84
2022/03/27 08:40:45;;;;;;;28.55;21.30;;;16.90;42.60;;;;;;4977970;28;20050;-84
2022/03/27 08:43:16;;;;;;;29.45;21.05;;;17.00;44.10;;;;;;4977144;28;20130;-84
2022/03/27 08:45:43;;;;;;;31.33;22.40;;;17.20;43.10;;;;;;4958995;29;20110;-84
2022/03/27 08:48:10;;;;;;;31.23;22.60;;;17.30;43.60;;;;;;4955526;29;20058;-85
2022/03/27 08:50:49;;;;;;;30.30;21.58;;;17.40;41.60;;;;;;4955434;29;20069;-84
2022/03/27 08:53:28;;;;;;;28.27;22.50;;;17.60;42.30;;;;;;4955687;28;20118;-82
2022/03/27 08:56:06;;;;;;;30.92;21.65;;;17.70;40.70;;;;;;4974179;28;20062;-82
2022/03/27 08:58:34;;;;;;;28.67;21.58;;;17.90;41.20;;;;;;4974545;28;20467;-83
2022/03/27 09:01:01;;;;;;;29.20;22.70;;;18.00;42.30;;;;;;4974640;28;20041;-82
2022/03/27 09:03:27;;;;;;;30.20;22.13;;;18.10;41.40;;;;;;4974086;28;20046;-82
2022/03/27 09:05:53;;;;;;;27.90;21.48;;;18.20;40.50;;;;;;4957461;28;20042;-83
2022/03/27 09:08:19;;;;;;;26.90;21.77;;;18.40;41.60;;;;;;4957533;28;20043;-85
2022/03/27 09:10:45;;;;;;;28.63;21.42;;;18.50;40.10;;;;;;4973870;28;20446;-84
2022/03/27 09:13:13;;;;;;;29.23;21.63;;;18.60;40.50;;;;;;4974316;28;20441;-84
2022/03/27 09:15:39;;;;;;;32.53;22.23;;;18.80;39.50;;;;;;4974058;28;20499;-83
2022/03/27 09:18:08;;;;;;;31.58;22.08;;;18.90;39.30;;;;;;4975137;28;20694;-85
2022/03/27 09:20:53;;;;;;;31.92;22.08;;;19.00;39.60;;;;;;4956364;28;20073;-85
2022/03/27 09:23:33;;;;;;;27.40;21.75;;;19.10;39.60;;;;;;4953459;29;20043;-85
2022/03/27 09:26:09;;;;;;;26.98;20.45;;;19.30;38.20;;;;;;4954196;28;20031;-85
2022/03/27 09:28:45;;;;;;;26.30;21.33;;;19.50;38.00;;;;;;4962962;28;20102;-84
2022/03/27 09:31:14;;;;;;;29.42;20.33;;;19.60;38.00;;;;;;4957480;28;20117;-83
2022/03/27 09:33:48;;;;;;;27.48;20.52;;;19.80;37.20;;;;;;4974812;28;20118;-83
2022/03/27 09:36:18;;;;;;;30.15;20.52;;;19.90;36.90;;;;;;4975950;28;20110;-83
2022/03/27 09:39:02;;;;;;;22.92;19.25;;;20.10;36.30;;;;;;4975511;28;20476;-83
2022/03/27 09:41:37;;;;;;;28.90;21.40;;;20.30;36.30;;;;;;4958407;28;20067;-83
2022/03/27 09:44:15;;;;;;;27.38;21.85;;;20.40;34.60;;;;;;4975338;28;20059;-83
2022/03/27 09:46:54;;;;;;;28.10;20.45;;;20.50;34.60;;;;;;4957775;28;20166;-83
2022/03/27 09:49:34;;;;;;;24.40;20.48;;;20.60;35.20;;;;;;4973229;28;20039;-83
2022/03/27 09:52:05;;;;;;;;;;;20.70;35.50;;;;;;4956334;28;20038;-83
2022/03/27 09:54:43;;;;;;;25.17;19.60;;;20.80;33.90;;;;;;4951866;28;19920;-83
2022/03/27 09:57:27;;;;;;;28.33;21.10;;;21.00;34.40;;;;;;4972136;28;20494;-84
2022/03/27 09:59:58;;;;;;;31.13;20.77;;;21.20;32.80;;;;;;4973040;28;20046;-84
2022/03/27 10:02:28;;;;;;;26.98;20.40;;;21.20;34.90;;;;;;4964871;28;20061;-84
2022/03/27 10:04:58;;;;;;;29.17;21.80;;;21.40;35.20;;;;;;4942920;29;20047;-84
2022/03/27 10:07:25;;;;;;;28.13;22.17;;;21.50;35.90;;;;;;4965017;28;20134;-84
2022/03/27 10:09:53;;;;;;;30.27;21.05;;;21.60;37.00;;;;;;4973450;28;20058;-83
2022/03/27 10:12:25;;;;;;;28.23;21.10;;;21.80;37.40;;;;;;4972267;28;20170;-84
2022/03/27 10:14:53;;;;;;;23.58;20.23;;;21.90;36.00;;;;;;4971411;28;20039;-84
2022/03/27 10:17:20;;;;;;;27.45;20.33;;;22.10;35.40;;;;;;4955760;28;20031;-84
2022/03/27 10:19:55;;;;;;;24.67;20.15;;;22.30;34.60;;;;;;4972264;28;20035;-84
2022/03/27 10:22:39;;;;;;;26.95;19.77;;;22.40;34.20;;;;;;4968569;28;20034;-83
2022/03/27 10:25:14;;;;;;;25.33;19.35;;;22.50;32.70;;;;;;4946393;28;20023;-83
2022/03/27 10:27:51;;;;;;;23.63;19.35;;;22.60;32.50;;;;;;4958679;28;20043;-83
2022/03/27 10:30:38;;;;;;;27.13;19.38;;;22.60;31.70;;;;;;4956070;28;20031;-85
2022/03/27 10:33:07;;;;;;;28.95;19.50;;;22.70;32.80;;;;;;4955211;28;20590;-84
2022/03/27 10:35:55;;;;;;;25.05;18.05;;;22.90;32.30;;;;;;4962849;28;20506;-82
2022/03/27 10:39:11;;;;;;;31.30;19.40;;;23.00;30.50;;;;;;4972278;28;20054;-84
2022/03/27 10:41:45;;;;;;;29.08;19.05;;;23.10;31.80;;;;;;4965242;28;20096;-84
2022/03/27 10:44:42;;;;;;;28.75;20.58;;;23.20;31.60;;;;;;4955284;28;20042;-82
2022/03/27 10:47:19;;;;;;;23.83;20.63;;;23.30;32.00;;;;;;4967387;28;20420;-83
2022/03/27 10:50:08;;;;;;;27.38;20.90;;;23.30;32.20;;;;;;4972810;28;20178;-84
2022/03/27 10:52:42;;;;;;;29.50;22.15;;;23.50;32.20;;;;;;4977225;28;20078;-83
2022/03/27 10:55:14;;;;;;;35.88;25.08;;;23.30;32.10;;;;;;4967788;28;20050;-84
2022/03/27 10:57:42;;;;;;;28.52;22.98;;;23.00;34.00;;;;;;4966550;28;20114;-84
2022/03/27 11:00:10;;;;;;;29.48;24.33;;;23.00;35.20;;;;;;4974764;28;20047;-84
2022/03/27 11:02:49;;;;;;;33.03;23.80;;;22.80;34.80;;;;;;4962589;28;20118;-83
2022/03/27 11:05:35;;;;;;;31.42;23.65;;;23.00;35.20;;;;;;4974651;28;20038;-83
2022/03/27 11:08:18;;;;;;;37.50;27.30;;;23.20;35.50;;;;;;4964862;28;20059;-84
2022/03/27 11:10:59;;;;;;;32.40;23.20;;;23.40;33.00;;;;;;4975677;28;20039;-83
2022/03/27 11:13:25;;;;;;;35.35;26.63;;;23.60;33.10;;;;;;4977059;28;20130;-84
2022/03/27 11:16:10;;;;;;;41.60;29.15;;;23.60;31.50;;;;;;4966776;28;20074;-82
2022/03/27 11:18:49;;;;;;;34.20;25.02;;;23.00;32.60;;;;;;4953904;28;20059;-83
2022/03/27 11:21:38;;;;;;;30.40;23.48;;;23.20;34.40;;;;;;4969379;28;20479;-83
2022/03/27 11:24:03;;;;;;;36.03;27.67;;;23.40;33.00;;;;;;4958755;28;20663;-83
2022/03/27 11:26:29;;;;;;;35.55;25.10;;;23.50;32.00;;;;;;4960774;28;20079;-82
2022/03/27 11:28:56;;;;;;;30.45;21.65;;;23.30;32.00;;;;;;4975136;28;20105;-82
2022/03/27 11:31:33;;;;;;;29.33;22.35;;;23.60;32.50;;;;;;4967657;28;20360;-83
2022/03/27 11:34:07;;;;;;;31.25;23.60;;;23.90;31.90;;;;;;4964993;28;20046;-83
2022/03/27 11:36:37;;;;;;;28.55;22.02;;;24.00;31.10;;;;;;4960203;28;20574;-82
2022/03/27 11:39:30;;;;;;;34.25;22.13;;;24.30;31.00;;;;;;4974778;28;20035;-84
2022/03/27 11:42:23;;;;;;;26.67;20.48;;;24.60;30.80;;;;;;4972270;28;20439;-82
2022/03/27 11:45:08;;;;;;;25.52;21.27;;;25.20;29.20;;;;;;4961836;28;20130;-83
2022/03/27 11:47:38;;;;;;;27.17;21.85;;;25.40;29.60;;;;;;4969934;28;20454;-83
2022/03/27 11:50:06;;;;;;;27.10;20.75;;;25.90;27.70;;;;;;4946314;29;20534;-84
2022/03/27 11:52:33;;;;;;;29.23;20.92;;;26.40;28.50;;;;;;4954167;28;20038;-83
2022/03/27 11:55:08;;;;;;;27.92;21.95;;;26.60;26.20;;;;;;4969992;28;20087;-82
2022/03/27 11:58:00;;;;;;;26.25;19.73;;;26.30;26.00;;;;;;4949283;28;20066;-83
2022/03/27 12:00:41;;;;;;;25.85;20.00;;;26.50;26.30;;;;;;4957777;28;20073;-84
2022/03/27 12:03:23;;;;;;;30.67;21.13;;;26.20;24.80;;;;;;4968731;28;20039;-83
2022/03/27 12:05:49;;;;;;;23.30;19.02;;;25.10;24.30;;;;;;4977523;28;20042;-83
2022/03/27 12:08:19;;;;;;;28.45;20.38;;;25.50;26.30;;;;;;4961738;28;20427;-84
2022/03/27 12:10:57;;;;;;;27.23;20.65;;;25.90;26.20;;;;;;4943619;29;20031;-83
2022/03/27 12:13:24;;;;;;;24.38;19.67;;;25.50;24.40;;;;;;4967473;28;20399;-84
2022/03/27 12:15:52;;;;;;;31.90;19.42;;;25.90;25.10;;;;;;4977998;28;20039;-83
2022/03/27 12:18:30;;;;;;;28.27;17.83;;;26.20;25.10;;;;;;4975306;28;20042;-83
2022/03/27 12:21:01;;;;;;;27.83;20.48;;;26.50;25.00;;;;;;4976134;28;20099;-85
2022/03/27 12:23:28;;;;;;;23.10;17.58;;;26.50;25.90;;;;;;4969955;28;20043;-84
2022/03/27 12:31:58;;;;;;;25.20;19.85;;;26.40;26.00;;;;;;4980542;28;20037;-82
2022/03/27 12:34:24;;;;;;;27.85;20.25;;;26.00;25.30;;;;;;4957934;28;20050;-83
2022/03/27 12:37:10;;;;;;;27.70;20.50;;;26.00;25.10;;;;;;4967173;28;20489;-83
2022/03/27 12:40:01;;;;;;;30.80;21.90;;;26.00;25.80;;;;;;4963886;28;20039;-83
2022/03/27 12:42:36;;;;;;;26.65;19.58;;;26.10;25.40;;;;;;4973296;28;20484;-83
2022/03/27 12:45:07;;;;;;;187.93;30.17;;;26.50;24.60;;;;;;4944471;28;20054;-83
2022/03/27 12:47:37;;;;;;;26.50;19.88;;;26.50;24.80;;;;;;4945379;28;20074;-82
2022/03/27 12:50:08;;;;;;;35.97;21.02;;;26.60;23.70;;;;;;4948723;29;20500;-82
2022/03/27 12:52:43;;;;;;;26.63;20.48;;;26.60;24.30;;;;;;4972122;28;20568;-83
2022/03/27 12:55:09;;;;;;;27.17;20.13;;;26.70;24.10;;;;;;4972944;28;20030;-83
2022/03/27 12:57:56;;;;;;;29.10;21.83;;;26.80;24.60;;;;;;4955537;28;20122;-83
2022/03/27 13:00:27;;;;;;;30.50;22.52;;;26.40;24.70;;;;;;4964616;28;20039;-83
2022/03/27 13:03:20;;;;;;;27.83;21.00;;;26.40;25.90;;;;;;4963814;28;20038;-84
2022/03/27 13:05:53;;;;;;;26.58;21.48;;;26.60;26.60;;;;;;4963802;28;20055;-83
2022/03/27 13:08:28;;;;;;;31.27;21.50;;;26.50;27.10;;;;;;4965504;28;20039;-84
2022/03/27 13:11:00;;;;;;;33.08;20.73;;;26.30;27.20;;;;;;4970633;28;20495;-83
2022/03/27 13:13:43;;;;;;;24.15;19.63;;;26.10;28.00;;;;;;4951266;29;20043;-83
2022/03/27 13:16:27;;;;;;;23.02;19.85;;;26.00;28.00;;;;;;4970317;28;20055;-83
2022/03/27 13:19:00;;;;;;;24.00;18.67;;;25.70;28.10;;;;;;4973275;28;20066;-83
2022/03/27 13:21:36;;;;;;;29.63;20.77;;;25.40;27.70;;;;;;4965653;28;20044;-83
2022/03/27 13:24:09;;;;;;;22.00;18.52;;;25.00;28.70;;;;;;4970667;28;20359;-83
2022/03/27 13:26:36;;;;;;;24.02;17.92;;;24.70;28.40;;;;;;4948271;28;20487;-83
2022/03/27 13:29:03;;;;;;;21.67;15.90;;;24.40;27.30;;;;;;4974005;28;20027;-83
2022/03/27 13:31:30;;;;;;;21.67;16.33;;;24.10;28.00;;;;;;4971756;28;20059;-84
2022/03/27 13:33:56;;;;;;;23.55;16.27;;;23.80;28.00;;;;;;4972971;28;20090;-83
2022/03/27 13:36:22;;;;;;;26.08;17.88;;;23.80;27.90;;;;;;4963654;28;20097;-84
2022/03/27 13:38:48;;;;;;;23.02;17.10;;;23.70;28.90;;;;;;4967989;28;20427;-83
2022/03/27 13:43:58;;;;;;;22.63;17.67;;;23.40;28.40;;;;;;4963777;28;20058;-83
2022/03/27 13:46:25;;;;;;;24.52;18.92;;;23.20;29.30;;;;;;4963485;28;20043;-83
2022/03/27 13:48:51;;;;;;;26.85;17.92;;;23.10;29.50;;;;;;4968952;28;20518;-83
2022/03/27 13:51:18;;;;;;;20.58;16.70;;;23.10;28.40;;;;;;4968103;28;20055;-83
2022/03/27 13:53:44;;;;;;;22.25;16.48;;;23.00;29.10;;;;;;4952530;28;20039;-83
2022/03/27 13:56:12;;;;;;;24.42;17.88;;;22.90;27.90;;;;;;4970768;28;20047;-83
2022/03/27 13:58:38;;;;;;;21.73;17.85;;;22.90;29.00;;;;;;4952654;28;20447;-83
2022/03/27 14:01:04;;;;;;;22.15;16.52;;;22.90;28.70;;;;;;4970282;28;20043;-83
2022/03/27 14:03:29;;;;;;;26.33;17.27;;;22.90;28.00;;;;;;4962690;28;20041;-83
2022/03/27 14:05:57;;;;;;;17.98;15.38;;;22.80;27.70;;;;;;4951045;28;20054;-83
2022/03/27 14:08:24;;;;;;;26.48;18.00;;;22.80;27.50;;;;;;4959756;28;20039;-83
2022/03/27 14:10:50;;;;;;;22.42;17.80;;;22.70;28.20;;;;;;4957676;28;20421;-83
2022/03/27 14:13:16;;;;;;;20.83;17.65;;;22.70;27.50;;;;;;4970383;28;20045;-83
2022/03/27 14:15:42;;;;;;;29.23;19.73;;;22.70;28.40;;;;;;4971118;28;20070;-82
2022/03/27 14:18:08;;;;;;;24.70;18.35;;;22.70;28.30;;;;;;4971590;28;20467;-82
2022/03/27 14:20:34;;;;;;;25.60;19.27;;;22.70;29.00;;;;;;4976512;28;20054;-82
2022/03/27 14:23:00;;;;;;;23.88;17.98;;;22.70;29.20;;;;;;4975230;28;20086;-82
2022/03/27 14:25:26;;;;;;;22.27;16.27;;;22.60;29.10;;;;;;4957580;28;20043;-82
2022/03/27 14:27:52;;;;;;;21.20;16.95;;;22.60;28.50;;;;;;4958351;28;20035;-82
2022/03/27 14:30:21;;;;;;;21.85;16.30;;;22.50;28.50;;;;;;4976466;28;20117;-82
2022/03/27 14:32:47;;;;;;;20.70;15.13;;;22.50;27.30;;;;;;4977270;28;20157;-82
2022/03/27 14:35:15;;;;;;;23.38;15.52;;;22.50;26.00;;;;;;4958939;28;20039;-83
2022/03/27 14:37:41;;;;;;;16.42;13.63;;;22.30;25.40;;;;;;4955668;28;20129;-86
2022/03/27 14:40:10;;;;;;;22.77;14.93;;;22.30;25.90;;;;;;4975744;28;20054;-84
2022/03/27 14:42:36;;;;;;;21.52;14.20;;;22.40;26.30;;;;;;4957950;28;20081;-83
2022/03/27 14:45:03;;;;;;;17.70;13.00;;;22.30;25.40;;;;;;4974421;28;20039;-83
2022/03/27 14:47:33;;;;;;;18.88;14.95;;;22.30;25.60;;;;;;4976572;28;20030;-83
2022/03/27 14:50:07;;;;;;;21.58;14.93;;;22.30;26.00;;;;;;4976874;28;20054;-83
2022/03/27 14:52:33;;;;;;;17.80;14.77;;;22.30;26.20;;;;;;4976671;28;20047;-83
2022/03/27 14:57:43;;;;;;;18.23;14.32;;;22.30;26.80;;;;;;4976817;28;20511;-82
2022/03/27 15:00:12;;;;;;;20.65;14.27;;;22.20;26.90;;;;;;4976389;28;20043;-82
2022/03/27 15:02:38;;;;;;;20.42;14.95;;;22.20;27.30;;;;;;4976694;28;20038;-82
2022/03/27 15:05:05;;;;;;;23.30;15.48;;;22.20;27.00;;;;;;4976834;28;20031;-83
2022/03/27 15:07:31;;;;;;;21.45;16.13;;;22.20;28.00;;;;;;4976603;28;20027;-83
2022/03/27 15:09:57;;;;;;;25.48;16.67;;;22.10;28.60;;;;;;4976319;28;20035;-83
2022/03/27 15:12:23;;;;;;;21.23;16.25;;;22.10;29.30;;;;;;4976438;28;20038;-83
2022/03/27 15:14:49;;;;;;;20.42;16.27;;;22.00;28.70;;;;;;4976998;28;20046;-83
2022/03/27 15:17:15;;;;;;;22.35;17.25;;;21.90;28.90;;;;;;4976739;28;20062;-83
2022/03/27 15:19:40;;;;;;;25.50;17.58;;;21.80;30.20;;;;;;4976351;28;20337;-83
2022/03/27 15:22:06;;;;;;;24.05;17.67;;;21.80;31.30;;;;;;4973833;28;20027;-83
2022/03/27 15:24:33;;;;;;;22.13;16.75;;;21.70;30.60;;;;;;4975204;28;20062;-82
2022/03/27 15:26:59;;;;;;;21.05;17.45;;;21.60;30.00;;;;;;4976252;28;20039;-83
2022/03/27 15:29:26;;;;;;;24.67;16.17;;;21.50;31.20;;;;;;4972930;28;20046;-83
2022/03/27 15:31:51;;;;;;;23.92;16.55;;;21.50;31.60;;;;;;4974729;28;20590;-83
2022/03/27 15:34:17;;;;;;;21.77;15.93;;;21.40;30.70;;;;;;4976157;28;20042;-83
2022/03/27 15:36:43;;;;;;;22.77;15.65;;;21.40;30.10;;;;;;4976093;28;20110;-83
2022/03/27 15:39:09;;;;;;;23.42;16.20;;;21.40;31.00;;;;;;4955744;28;20037;-83
2022/03/27 15:41:36;;;;;;;20.73;15.20;;;21.30;32.20;;;;;;4956174;28;20043;-83
2022/03/27 15:44:04;;;;;;;18.17;14.43;;;21.20;32.60;;;;;;4973348;28;20062;-82
2022/03/27 15:46:31;;;;;;;21.63;15.57;;;21.20;34.10;;;;;;4974513;28;20547;-82
2022/03/27 15:48:58;;;;;;;23.02;15.75;;;21.20;37.30;;;;;;4963891;28;20491;-83
2022/03/27 15:51:24;;;;;;;19.45;15.75;;;21.10;39.30;;;;;;4969053;28;20045;-83
2022/03/27 15:53:50;;;;;;;17.83;14.85;;;21.00;42.70;;;;;;4972987;28;20070;-85
2022/03/27 15:56:17;;;;;;;21.08;15.00;;;20.90;43.30;;;;;;4965918;28;20070;-83
2022/03/27 15:58:43;;;;;;;19.20;15.05;;;20.80;43.50;;;;;;4964628;28;20039;-83
2022/03/27 16:01:14;;;;;;;16.63;14.82;;;20.80;43.80;;;;;;4968030;28;20110;-84
2022/03/27 16:03:41;;;;;;;22.55;15.90;;;20.70;45.40;;;;;;4967891;28;20047;-84
2022/03/27 16:06:07;;;;;;;18.08;15.05;;;20.60;48.60;;;;;;4969830;28;20139;-84
2022/03/27 16:08:33;;;;;;;20.20;14.60;;;20.50;49.90;;;;;;4962862;28;20482;-84
2022/03/27 16:10:59;;;;;;;20.20;14.68;;;20.50;51.00;;;;;;4958106;28;20066;-84
2022/03/27 16:13:28;;;;;;;18.63;14.02;;;20.40;50.80;;;;;;4950872;28;20075;-84
2022/03/27 16:15:55;;;;;;;19.23;14.15;;;20.40;50.10;;;;;;4969698;28;20054;-83
2022/03/27 16:18:21;;;;;;;18.38;13.68;;;20.40;49.80;;;;;;4966737;28;20070;-83
2022/03/27 16:20:47;;;;;;;16.10;13.25;;;20.40;47.90;;;;;;4969204;28;20444;-83
2022/03/27 16:23:12;;;;;;;18.13;13.07;;;20.30;42.30;;;;;;4956793;28;20542;-83
2022/03/27 16:25:39;;;;;;;16.60;13.93;;;20.20;42.60;;;;;;4955738;28;20506;-83
2022/03/27 16:28:08;;;;;;;23.27;14.60;;;20.20;43.50;;;;;;4970807;28;20086;-83
2022/03/27 16:30:35;;;;;;;22.88;14.20;;;20.20;44.80;;;;;;4974628;28;20471;-83
2022/03/27 16:33:01;;;;;;;17.88;13.48;;;20.20;44.60;;;;;;4976174;28;20046;-84
2022/03/27 16:35:27;;;;;;;20.40;13.20;;;20.10;42.20;;;;;;4957600;28;20061;-84
2022/03/27 16:37:55;;;;;;;20.88;14.63;;;20.10;43.30;;;;;;4969755;28;20476;-84
2022/03/27 16:40:21;;;;;;;18.30;13.13;;;20.00;39.30;;;;;;4974077;28;20027;-82
2022/03/27 16:42:47;;;;;;;19.33;14.15;;;19.90;40.10;;;;;;4973937;28;20038;-82
2022/03/27 16:45:13;;;;;;;22.90;14.07;;;19.90;39.60;;;;;;4974155;28;20034;-82
2022/03/27 16:47:39;;;;;;;19.55;13.93;;;19.80;38.60;;;;;;4974495;28;20035;-82
2022/03/27 16:50:06;;;;;;;22.85;14.55;;;19.70;38.90;;;;;;4956402;28;20403;-82
2022/03/27 16:52:31;;;;;;;24.40;13.73;;;19.70;40.30;;;;;;4974223;28;20411;-82
2022/03/27 16:54:57;;;;;;;20.25;13.32;;;19.60;40.50;;;;;;4973346;28;20057;-82
2022/03/27 16:57:23;;;;;;;23.85;14.77;;;19.60;40.10;;;;;;4965661;28;20039;-82
2022/03/27 16:59:49;;;;;;;22.50;14.27;;;19.60;38.70;;;;;;4973596;28;20131;-82
2022/03/27 17:02:14;;;;;;;18.75;13.77;;;19.50;39.40;;;;;;4970076;28;20035;-82
2022/03/27 17:04:40;;;;;;;19.27;14.10;;;19.50;40.60;;;;;;4972052;28;20353;-82
2022/03/27 17:07:06;;;;;;;19.50;12.82;;;19.30;41.20;;;;;;4969245;28;20039;-84
2022/03/27 17:09:32;;;;;;;18.92;13.00;;;19.30;41.10;;;;;;4973854;28;20074;-83
2022/03/27 17:11:58;;;;;;;21.50;12.85;;;19.20;40.20;;;;;;4973745;28;20046;-83
2022/03/27 17:14:24;;;;;;;19.00;13.10;;;19.30;40.60;;;;;;4950349;28;20446;-83
2022/03/27 17:16:50;;;;;;;20.58;13.85;;;19.20;41.80;;;;;;4967883;28;20043;-83
2022/03/27 17:19:16;;;;;;;20.70;13.82;;;19.20;41.20;;;;;;4964861;28;20070;-83
2022/03/27 17:21:41;;;;;;;22.25;14.45;;;19.20;41.30;;;;;;4970898;28;20090;-83
2022/03/27 17:24:07;;;;;;;20.35;13.77;;;19.10;41.80;;;;;;4972347;28;20042;-83
2022/03/27 17:26:33;;;;;;;19.15;13.18;;;19.10;41.00;;;;;;4972451;28;20098;-86
2022/03/27 17:29:02;;;;;;;17.88;13.63;;;19.00;41.70;;;;;;4960863;28;20083;-88
2022/03/27 17:31:28;;;;;;;21.00;13.70;;;19.00;41.60;;;;;;4967198;28;20030;-83
2022/03/27 17:33:54;;;;;;;17.60;13.68;;;18.90;41.30;;;;;;4972023;28;20687;-83
2022/03/27 17:36:20;;;;;;;22.08;14.80;;;18.90;41.30;;;;;;4973919;28;20114;-83
2022/03/27 17:38:46;;;;;;;21.85;14.60;;;18.80;43.00;;;;;;4973970;28;20043;-83
2022/03/27 17:41:12;;;;;;;22.08;14.77;;;18.80;41.80;;;;;;4973733;28;20035;-83
2022/03/27 17:43:38;;;;;;;27.80;15.50;;;18.70;42.50;;;;;;4970495;28;20511;-83
2022/03/27 17:46:04;;;;;;;19.98;15.70;;;18.70;42.30;;;;;;4970939;28;20073;-82
2022/03/27 17:48:30;;;;;;;21.70;15.65;;;18.70;42.70;;;;;;4968836;28;20030;-83
2022/03/27 17:50:56;;;;;;;20.95;15.70;;;18.70;43.00;;;;;;4970513;28;20080;-83
2022/03/27 17:53:21;;;;;;;21.98;14.77;;;18.70;43.60;;;;;;4952972;28;20038;-83
2022/03/27 17:55:47;;;;;;;19.40;14.82;;;18.60;44.20;;;;;;4974514;28;20043;-83
2022/03/27 17:58:13;;;;;;;20.52;14.57;;;18.50;44.70;;;;;;4974302;28;20408;-83
2022/03/27 18:00:38;;;;;;;28.77;15.73;;;18.50;44.60;;;;;;4956967;28;20038;-83
2022/03/27 18:03:05;;;;;;;24.75;16.30;;;18.50;46.80;;;;;;4974669;28;20388;-83
2022/03/27 18:05:32;;;;;;;24.25;15.82;;;18.50;48.00;;;;;;4974662;28;20042;-83
2022/03/27 18:07:58;;;;;;;23.95;16.50;;;18.40;49.00;;;;;;4956955;28;20197;-83
2022/03/27 18:10:24;;;;;;;25.70;17.00;;;18.40;49.30;;;;;;4957721;28;20035;-84
2022/03/27 18:12:52;;;;;;;27.60;18.33;;;18.30;50.20;;;;;;4975928;28;20046;-83
2022/03/27 18:15:18;;;;;;;29.92;19.02;;;18.30;51.90;;;;;;4975317;28;20043;-83
2022/03/27 18:17:44;;;;;;;27.60;19.08;;;18.20;53.00;;;;;;4954426;28;20347;-83
2022/03/27 18:20:10;;;;;;;28.70;18.77;;;18.20;53.30;;;;;;4964001;28;20042;-83
2022/03/27 18:22:36;;;;;;;30.80;18.73;;;18.10;54.40;;;;;;4971470;28;20043;-83
2022/03/27 18:25:02;;;;;;;27.10;18.70;;;18.00;54.40;;;;;;4975439;28;20039;-83
2022/03/27 18:27:29;;;;;;;24.42;18.17;;;18.00;55.50;;;;;;4971862;28;20035;-83
2022/03/27 18:29:55;;;;;;;25.45;18.38;;;17.90;57.00;;;;;;4948056;28;20162;-83
2022/03/27 18:32:22;;;;;;;22.55;18.45;;;17.90;58.30;;;;;;4974016;28;20038;-84
2022/03/27 18:34:47;;;;;;;25.20;18.60;;;17.90;61.60;;;;;;4969846;28;20039;-84
2022/03/27 18:37:15;;;;;;;23.05;18.52;;;17.90;62.70;;;;;;4966678;28;20031;-84
2022/03/27 18:39:41;;;;;;;24.85;20.63;;;17.90;63.10;;;;;;4968054;28;20395;-83
2022/03/27 18:42:07;;;;;;;27.42;19.67;;;17.90;65.80;;;;;;4955801;28;20094;-83
2022/03/27 18:44:37;;;;;;;31.80;22.13;;;17.90;66.70;;;;;;4976238;28;20072;-84
2022/03/27 18:47:06;;;;;;;;;;;17.80;68.60;;;;;;4977296;28;20031;-84
2022/03/27 18:49:35;;;;;;;25.02;21.33;;;17.80;68.40;;;;;;4975703;28;20030;-84
2022/03/27 18:52:05;;;;;;;28.90;22.60;;;17.70;69.70;;;;;;4975285;28;20042;-83
2022/03/27 18:54:32;;;;;;;30.88;22.15;;;17.60;71.30;;;;;;4964223;28;20046;-87
2022/03/27 18:57:00;;;;;;;28.65;21.75;;;17.50;72.30;;;;;;4958807;28;20420;-86
2022/03/27 18:59:29;;;;;;;27.35;24.23;;;17.40;72.50;;;;;;4954787;28;20089;-83
2022/03/27 19:01:55;;;;;;;32.25;23.45;;;17.40;72.40;;;;;;4973682;28;20053;-83
2022/03/27 19:04:24;;;;;;;30.77;23.77;;;17.20;72.80;;;;;;4954546;28;20551;-81
2022/03/27 19:06:53;;;;;;;26.77;21.40;;;17.10;73.40;;;;;;4967954;28;20090;-81
2022/03/27 19:09:23;;;;;;;31.52;22.63;;;17.00;73.40;;;;;;4972997;28;20050;-82
2022/03/27 19:11:52;;;;;;;27.77;21.33;;;17.00;73.40;;;;;;4971368;28;20499;-82
2022/03/27 19:14:19;;;;;;;27.37;21.00;;;17.00;73.40;;;;;;4973317;28;20146;-81